Topaz, Idaho
Current Conditions -  °F | °C
As of 7:53 PM on Friday 24 Oct 2014 (Local Time) from KPIH Reporting Station
Clear Clear  
Wind Chill: 64°   Ceiling: Unl
Heat Index: 64°   Visibility: 10mi
Dew Point: 25°   Wind: 14mph
Humidity: 23%   Direction: 170°S
Pressure: 30.06"   Gusts: NA
Location:  42.5711°N, 112.021°W
Report Text: KPIH 250153Z 17012KT 10SM CLR 18/M04 A3006 RMK AO2 SLP159 T01781039
Loading
Personal Weather Stations






























Interactive Weather Map
Tropical Storm Tracking
New forecast layout! Learn more

10-Day Weather Forecast

Advertisements
Track Severe Weather on mobile